Time;durP1;ratioP1;P1;durP2;ratioP2;P2;SDS_P1;SDS_P2;PMS_P1;PMS_P2;Temp;Humidity;BMP_temperature;BMP_pressure;BME280_temperature;BME280_humidity;BME280_pressure;Samples;Min_cycle;Max_cycle;Signal;HPM_P1;HPM_P2
2023/12/19 00:00:35;;;;;;;46.83;23.88;;;9.10;99.90;;;;;;5133358;27;20140;-75
2023/12/19 00:03:01;;;;;;;52.65;24.25;;;9.10;99.90;;;;;;5133332;27;20092;-75
2023/12/19 00:05:27;;;;;;;54.00;23.08;;;9.00;99.90;;;;;;5133237;27;20042;-75
2023/12/19 00:07:52;;;;;;;45.03;22.45;;;9.10;99.90;;;;;;5115438;27;20562;-75
2023/12/19 00:10:18;;;;;;;50.35;24.60;;;8.90;99.90;;;;;;5133073;27;20078;-75
2023/12/19 00:12:44;;;;;;;48.63;22.52;;;8.90;99.90;;;;;;5116153;27;20084;-75
2023/12/19 00:15:09;;;;;;;41.20;20.77;;;9.00;99.90;;;;;;5133218;27;20041;-75
2023/12/19 00:17:35;;;;;;;46.45;23.33;;;9.00;99.90;;;;;;5132586;27;20070;-75
2023/12/19 00:20:01;;;;;;;48.20;22.27;;;9.10;99.90;;;;;;5133133;27;20047;-75
2023/12/19 00:22:27;;;;;;;45.58;22.75;;;8.90;99.90;;;;;;5115168;27;20625;-75
2023/12/19 00:24:52;;;;;;;50.35;22.92;;;8.90;99.90;;;;;;5115857;27;20035;-76
2023/12/19 00:27:18;;;;;;;44.85;21.52;;;8.90;99.90;;;;;;5132308;27;20516;-76
2023/12/19 00:29:43;;;;;;;43.40;20.00;;;9.00;99.90;;;;;;5132741;27;20035;-76
2023/12/19 00:32:09;;;;;;;49.70;20.65;;;9.10;99.90;;;;;;5132665;27;20402;-76
2023/12/19 00:34:35;;;;;;;46.55;21.52;;;9.00;99.90;;;;;;5115452;27;20118;-76
2023/12/19 00:37:00;;;;;;;47.15;23.33;;;9.00;99.90;;;;;;5132254;27;20125;-76
2023/12/19 00:39:27;;;;;;;42.03;21.08;;;9.00;99.90;;;;;;5132369;27;20042;-76
2023/12/19 00:41:53;;;;;;;45.33;20.95;;;9.00;99.90;;;;;;5132571;27;20506;-75
2023/12/19 00:44:19;;;;;;;40.65;20.50;;;9.00;99.90;;;;;;5132480;27;20042;-75
2023/12/19 00:46:44;;;;;;;37.78;20.73;;;9.00;99.90;;;;;;5132043;27;20569;-76
2023/12/19 00:49:11;;;;;;;40.17;20.63;;;9.20;99.90;;;;;;5132224;27;20039;-76
2023/12/19 00:51:37;;;;;;;38.42;20.88;;;9.10;99.90;;;;;;5132177;27;20041;-75
2023/12/19 00:54:03;;;;;;;37.15;19.92;;;9.20;99.90;;;;;;5132182;27;20080;-75
2023/12/19 00:56:29;;;;;;;31.00;18.42;;;9.00;99.90;;;;;;5131932;27;20067;-75
2023/12/19 00:58:54;;;;;;;38.90;18.98;;;9.10;99.90;;;;;;5131365;27;20456;-75
2023/12/19 01:01:24;;;;;;;43.42;19.90;;;9.30;99.90;;;;;;5131970;27;20046;-75
2023/12/19 01:03:50;;;;;;;39.55;19.73;;;9.30;99.90;;;;;;5132282;27;20062;-75
2023/12/19 01:06:15;;;;;;;41.47;19.67;;;9.10;99.90;;;;;;5131682;27;20047;-76
2023/12/19 01:08:41;;;;;;;38.35;18.25;;;9.30;99.90;;;;;;5131668;27;20050;-75
2023/12/19 01:11:09;;;;;;;36.70;19.35;;;9.10;99.90;;;;;;5132145;27;20042;-76
2023/12/19 01:13:38;;;;;;;38.67;19.00;;;9.30;99.90;;;;;;5131848;27;20039;-76
2023/12/19 01:16:04;;;;;;;34.50;17.25;;;9.10;99.90;;;;;;5131958;27;20464;-76
2023/12/19 01:18:30;;;;;;;31.58;17.13;;;9.30;99.90;;;;;;5114335;27;20039;-76
2023/12/19 01:20:55;;;;;;;36.85;19.05;;;9.20;99.90;;;;;;5114599;27;20490;-76
2023/12/19 01:23:21;;;;;;;36.72;16.45;;;9.10;99.90;;;;;;5114483;27;20043;-76
2023/12/19 01:25:47;;;;;;;37.35;17.63;;;9.00;99.90;;;;;;5131496;27;20092;-75
2023/12/19 01:28:13;;;;;;;35.90;16.98;;;9.10;99.90;;;;;;5131322;27;20414;-76
2023/12/19 01:30:39;;;;;;;33.05;17.65;;;9.10;99.90;;;;;;5131989;27;20407;-75
2023/12/19 01:33:05;;;;;;;35.78;17.60;;;9.00;99.90;;;;;;5131546;27;20035;-75
2023/12/19 01:35:30;;;;;;;32.83;16.60;;;9.20;99.90;;;;;;5131451;27;20789;-76
2023/12/19 01:37:56;;;;;;;33.50;16.92;;;9.20;99.90;;;;;;5113978;27;20039;-76
2023/12/19 01:40:22;;;;;;;33.60;18.08;;;9.10;99.90;;;;;;5131869;27;20559;-76
2023/12/19 01:42:47;;;;;;;37.35;17.17;;;9.00;99.90;;;;;;5131511;27;20490;-76
2023/12/19 01:45:14;;;;;;;38.47;18.13;;;9.10;99.90;;;;;;5131681;27;20035;-76
2023/12/19 01:47:44;;;;;;;33.30;16.65;;;9.10;99.90;;;;;;5131061;27;20045;-76
2023/12/19 01:50:15;;;;;;;36.33;18.65;;;9.00;99.90;;;;;;5131392;28;20118;-75
2023/12/19 01:52:45;;;;;;;28.73;16.60;;;9.00;99.90;;;;;;5131319;28;20042;-75
2023/12/19 01:55:12;;;;;;;38.17;17.40;;;9.10;99.90;;;;;;5131692;28;20122;-75
2023/12/19 01:57:38;;;;;;;31.98;16.02;;;9.00;99.90;;;;;;5130962;28;20121;-75
2023/12/19 02:00:05;;;;;;;30.33;15.98;;;9.20;99.90;;;;;;5114234;28;20130;-75
2023/12/19 02:02:31;;;;;;;32.13;16.55;;;9.00;99.90;;;;;;5114146;28;20042;-75
2023/12/19 02:04:57;;;;;;;32.85;16.00;;;9.10;99.90;;;;;;5131519;28;20102;-76
2023/12/19 02:07:23;;;;;;;28.88;16.42;;;9.10;99.90;;;;;;5130997;28;20429;-75
2023/12/19 02:09:49;;;;;;;32.53;16.85;;;9.10;99.90;;;;;;5133008;27;20039;-75
2023/12/19 02:12:14;;;;;;;33.75;15.98;;;9.20;99.90;;;;;;5135443;27;20063;-75
2023/12/19 02:14:42;;;;;;;29.17;15.82;;;9.10;99.90;;;;;;5135367;27;20035;-76
2023/12/19 02:17:08;;;;;;;28.00;15.32;;;9.20;99.90;;;;;;5135093;27;20092;-76
2023/12/19 02:19:46;;;;;;;28.42;15.15;;;9.30;99.90;;;;;;5135519;27;20034;-76
2023/12/19 02:22:12;;;;;;;31.17;16.17;;;9.10;99.90;;;;;;5118171;27;20039;-76
2023/12/19 02:24:38;;;;;;;26.58;15.15;;;9.20;99.90;;;;;;5118008;27;20125;-76
2023/12/19 02:27:04;;;;;;;24.52;13.93;;;9.30;99.90;;;;;;5134785;27;20035;-76
2023/12/19 02:29:30;;;;;;;33.17;15.25;;;9.20;99.90;;;;;;5134899;27;20509;-75
2023/12/19 02:31:57;;;;;;;29.13;15.40;;;9.20;99.90;;;;;;5134969;27;20081;-75
2023/12/19 02:34:23;;;;;;;25.42;13.95;;;9.20;99.90;;;;;;5117773;27;20066;-75
2023/12/19 02:36:49;;;;;;;31.02;14.05;;;9.30;99.90;;;;;;5134641;27;20663;-76
2023/12/19 02:39:14;;;;;;;27.25;14.00;;;9.10;99.90;;;;;;5074325;22;20042;-78
2023/12/19 02:41:40;;;;;;;25.50;14.65;;;9.00;99.90;;;;;;5042210;28;20037;-78
2023/12/19 02:44:06;;;;;;;27.10;15.40;;;9.20;99.90;;;;;;5043404;28;20033;-78
2023/12/19 02:46:32;;;;;;;25.92;15.75;;;9.10;99.90;;;;;;5044242;28;20060;-78
2023/12/19 02:48:59;;;;;;;25.85;14.85;;;9.10;99.90;;;;;;5044646;28;20041;-78
2023/12/19 02:51:27;;;;;;;29.17;16.17;;;9.20;99.90;;;;;;5045833;28;20052;-78
2023/12/19 02:53:53;;;;;;;27.83;14.88;;;9.00;99.90;;;;;;5045770;28;20083;-78
2023/12/19 02:56:19;;;;;;;26.27;14.25;;;9.20;99.90;;;;;;5045583;28;20029;-78
2023/12/19 02:58:45;;;;;;;25.20;14.50;;;9.20;99.90;;;;;;5046646;28;20636;-78
2023/12/19 03:01:11;;;;;;;27.27;14.25;;;9.20;99.90;;;;;;5046864;28;20133;-78
2023/12/19 03:03:38;;;;;;;24.63;13.48;;;9.10;99.90;;;;;;5046413;28;20064;-78
2023/12/19 03:06:04;;;;;;;26.80;14.45;;;9.10;99.90;;;;;;5045484;28;20042;-78
2023/12/19 03:08:30;;;;;;;25.83;13.63;;;9.20;99.90;;;;;;5046441;28;20590;-79
2023/12/19 03:10:56;;;;;;;26.90;13.88;;;9.30;99.90;;;;;;5045868;28;20037;-79
2023/12/19 03:13:21;;;;;;;23.20;12.68;;;9.00;99.90;;;;;;5043228;28;20088;-78
2023/12/19 03:15:47;;;;;;;18.27;11.13;;;9.00;99.90;;;;;;5043119;28;20046;-78
2023/12/19 03:18:13;;;;;;;25.73;12.38;;;9.00;99.90;;;;;;5042460;28;20048;-78
2023/12/19 03:20:38;;;;;;;21.73;11.48;;;9.10;99.90;;;;;;5042090;28;20034;-78
2023/12/19 03:23:04;;;;;;;19.55;10.65;;;9.20;99.90;;;;;;5040774;28;20053;-78
2023/12/19 03:25:29;;;;;;;21.40;11.27;;;9.00;99.90;;;;;;5042518;28;20124;-78
2023/12/19 03:27:55;;;;;;;19.20;10.60;;;9.20;99.90;;;;;;5025581;28;20097;-78
2023/12/19 03:30:21;;;;;;;18.05;10.43;;;9.20;99.90;;;;;;5043748;28;20033;-78
2023/12/19 03:32:46;;;;;;;16.75;9.77;;;9.00;99.90;;;;;;5043421;28;20597;-78
2023/12/19 03:35:12;;;;;;;16.40;9.77;;;9.00;99.90;;;;;;5044883;28;20037;-78
2023/12/19 03:37:38;;;;;;;18.90;10.45;;;9.00;99.90;;;;;;5043468;28;20171;-78
2023/12/19 03:40:05;;;;;;;16.65;10.18;;;9.10;99.90;;;;;;5043518;28;20574;-78
2023/12/19 03:42:31;;;;;;;15.00;10.10;;;9.00;99.90;;;;;;5043334;28;20038;-78
2023/12/19 03:44:57;;;;;;;19.60;10.52;;;9.00;99.90;;;;;;5042972;28;20041;-78
2023/12/19 03:47:22;;;;;;;16.73;9.35;;;9.00;99.90;;;;;;5043327;28;20057;-78
2023/12/19 03:49:48;;;;;;;17.38;10.38;;;9.00;99.90;;;;;;5044323;28;20030;-78
2023/12/19 03:52:13;;;;;;;16.55;10.18;;;9.00;99.90;;;;;;5044223;28;20045;-78
2023/12/19 03:54:39;;;;;;;14.88;9.18;;;9.10;99.90;;;;;;5043515;28;20045;-79
2023/12/19 03:57:05;;;;;;;14.48;9.27;;;9.00;99.90;;;;;;5043650;28;20101;-79
2023/12/19 03:59:31;;;;;;;16.15;9.60;;;9.00;99.90;;;;;;5046073;28;20041;-79
2023/12/19 04:01:58;;;;;;;18.80;9.85;;;9.10;99.90;;;;;;5046922;28;20054;-79
2023/12/19 04:04:24;;;;;;;20.27;10.05;;;9.00;99.90;;;;;;5047576;28;20042;-79
2023/12/19 04:06:50;;;;;;;14.77;8.45;;;9.10;99.90;;;;;;5046606;28;20042;-79
2023/12/19 04:09:16;;;;;;;15.20;9.55;;;9.00;99.90;;;;;;5046499;28;20040;-79
2023/12/19 04:11:47;;;;;;;16.05;9.52;;;8.90;99.90;;;;;;5046743;28;20044;-79
2023/12/19 04:14:14;;;;;;;17.70;9.10;;;9.10;99.90;;;;;;5047196;28;20072;-78
2023/12/19 04:16:40;;;;;;;14.15;8.38;;;9.10;99.90;;;;;;5047597;28;20041;-78
2023/12/19 04:19:06;;;;;;;13.88;8.45;;;8.90;99.90;;;;;;5046292;28;20041;-78
2023/12/19 04:21:32;;;;;;;10.93;6.97;;;8.90;99.90;;;;;;5046145;28;20053;-78
2023/12/19 04:23:58;;;;;;;13.10;7.97;;;9.10;99.90;;;;;;5046603;28;20501;-77
2023/12/19 04:26:24;;;;;;;12.05;7.22;;;8.90;99.90;;;;;;5046165;28;20053;-77
2023/12/19 04:28:50;;;;;;;14.15;7.47;;;9.00;99.90;;;;;;5046451;28;20128;-77
2023/12/19 04:31:15;;;;;;;10.10;6.93;;;8.90;99.90;;;;;;5030139;28;20101;-77
2023/12/19 04:33:41;;;;;;;10.02;6.55;;;9.00;99.90;;;;;;5047033;28;20037;-78
2023/12/19 04:36:09;;;;;;;11.25;7.00;;;8.90;99.90;;;;;;5047165;28;20117;-77
2023/12/19 04:38:35;;;;;;;11.20;6.65;;;9.00;99.90;;;;;;5046637;28;20405;-77
2023/12/19 04:41:02;;;;;;;13.13;7.72;;;9.00;99.90;;;;;;5047879;28;20056;-77
2023/12/19 04:43:27;;;;;;;11.25;6.82;;;8.80;99.90;;;;;;5047616;28;20044;-77
2023/12/19 04:45:53;;;;;;;12.82;7.32;;;8.90;99.90;;;;;;5047069;28;20037;-77
2023/12/19 04:48:18;;;;;;;13.85;7.65;;;8.80;99.90;;;;;;5030727;28;20049;-77
2023/12/19 04:50:44;;;;;;;12.07;7.55;;;8.90;99.90;;;;;;5047844;28;20039;-77
2023/12/19 04:53:10;;;;;;;11.40;7.25;;;8.80;99.90;;;;;;5047111;28;20030;-77
2023/12/19 04:55:35;;;;;;;13.35;7.75;;;8.90;99.90;;;;;;5047502;28;20129;-77
2023/12/19 04:58:02;;;;;;;13.20;8.05;;;8.90;99.90;;;;;;5045066;28;20041;-77
2023/12/19 05:00:27;;;;;;;13.63;7.80;;;9.00;99.90;;;;;;5042230;28;20041;-77
2023/12/19 05:02:53;;;;;;;14.88;7.15;;;9.10;99.90;;;;;;5042728;28;20069;-77
2023/12/19 05:05:22;;;;;;;11.20;5.95;;;9.00;99.90;;;;;;5043222;28;20037;-77
2023/12/19 05:07:48;;;;;;;10.30;6.30;;;8.80;99.90;;;;;;5043131;28;20101;-77
2023/12/19 05:10:13;;;;;;;10.88;6.30;;;8.80;99.90;;;;;;5043358;28;20069;-77
2023/12/19 05:12:39;;;;;;;11.00;5.90;;;9.00;99.90;;;;;;5044308;28;20057;-77
2023/12/19 05:15:05;;;;;;;9.73;6.15;;;9.00;99.90;;;;;;5043862;28;20040;-77
2023/12/19 05:17:31;;;;;;;8.90;4.65;;;9.00;99.90;;;;;;5043520;28;20037;-77
2023/12/19 05:19:58;;;;;;;10.05;5.63;;;8.80;99.90;;;;;;5043068;28;20572;-77
2023/12/19 05:22:24;;;;;;;9.27;4.90;;;8.80;99.90;;;;;;5043797;28;20563;-77
2023/12/19 05:24:49;;;;;;;11.30;5.65;;;8.80;99.90;;;;;;5044632;28;20037;-77
2023/12/19 05:27:15;;;;;;;9.35;5.53;;;8.80;99.90;;;;;;5043578;28;20037;-77
2023/12/19 05:29:41;;;;;;;9.05;5.45;;;8.90;99.90;;;;;;5043928;28;20040;-77
2023/12/19 05:32:06;;;;;;;7.45;4.80;;;8.80;99.90;;;;;;5044961;28;20068;-77
2023/12/19 05:34:32;;;;;;;9.27;5.30;;;8.90;99.90;;;;;;5045352;28;20049;-77
2023/12/19 05:36:58;;;;;;;9.02;5.18;;;8.80;99.90;;;;;;5027875;28;20068;-77
2023/12/19 05:39:24;;;;;;;9.18;4.65;;;8.90;99.90;;;;;;5045650;28;20041;-77
2023/12/19 05:41:51;;;;;;;8.45;4.57;;;8.90;99.90;;;;;;5027855;28;20319;-79
2023/12/19 05:44:17;;;;;;;8.27;4.43;;;8.70;99.90;;;;;;5044156;28;20048;-78
2023/12/19 05:46:43;;;;;;;10.63;6.30;;;8.90;99.90;;;;;;5045203;28;20509;-77
2023/12/19 05:49:09;;;;;;;8.20;4.45;;;8.70;99.90;;;;;;5044748;28;20037;-77
2023/12/19 05:51:38;;;;;;;10.55;4.63;;;8.80;99.90;;;;;;5044960;28;20037;-77
2023/12/19 05:54:05;;;;;;;8.15;5.13;;;9.00;99.90;;;;;;5044635;28;20096;-77
2023/12/19 05:56:31;;;;;;;8.75;5.47;;;8.80;99.90;;;;;;5044347;28;20041;-77
2023/12/19 05:58:57;;;;;;;7.93;5.00;;;8.90;99.90;;;;;;5044516;28;20053;-77
2023/12/19 06:01:23;;;;;;;7.70;4.80;;;8.90;99.90;;;;;;5044905;28;20045;-77
2023/12/19 06:03:48;;;;;;;11.57;5.03;;;9.00;99.90;;;;;;5028615;28;20041;-77
2023/12/19 06:06:14;;;;;;;8.48;5.07;;;8.70;99.90;;;;;;5044936;28;20033;-77
2023/12/19 06:08:42;;;;;;;8.07;4.82;;;8.80;99.90;;;;;;5043724;28;20042;-77
2023/12/19 06:11:08;;;;;;;8.40;4.70;;;8.70;99.90;;;;;;5028359;28;20041;-77
2023/12/19 06:13:34;;;;;;;7.68;5.18;;;9.00;99.90;;;;;;5046334;28;20077;-77
2023/12/19 06:16:00;;;;;;;8.30;4.68;;;9.00;99.90;;;;;;5044528;28;20033;-77
2023/12/19 06:18:25;;;;;;;9.63;4.82;;;9.00;99.90;;;;;;5044662;28;20045;-77
2023/12/19 06:20:51;;;;;;;8.50;4.20;;;8.90;99.90;;;;;;5044139;28;20493;-77
2023/12/19 06:23:17;;;;;;;7.43;4.72;;;8.90;99.90;;;;;;5043946;28;20164;-79
2023/12/19 06:25:42;;;;;;;6.35;4.32;;;8.80;99.90;;;;;;5043406;28;20051;-77
2023/12/19 06:28:08;;;;;;;8.30;4.38;;;9.00;99.90;;;;;;5043234;28;20044;-77
2023/12/19 06:30:34;;;;;;;6.80;4.35;;;8.70;99.90;;;;;;5042527;28;20038;-77
2023/12/19 06:33:00;;;;;;;8.30;4.53;;;9.00;99.90;;;;;;5026629;28;20107;-77
2023/12/19 06:35:29;;;;;;;8.93;4.38;;;8.90;99.90;;;;;;5044520;28;20065;-78
2023/12/19 06:37:54;;;;;;;8.60;3.92;;;9.00;99.90;;;;;;5042276;28;20045;-78
2023/12/19 06:40:20;;;;;;;7.22;4.30;;;8.90;99.90;;;;;;5044552;28;20040;-78
2023/12/19 06:42:47;;;;;;;8.10;4.45;;;9.00;99.90;;;;;;5043358;28;20044;-78
2023/12/19 06:45:13;;;;;;;10.02;5.30;;;8.90;99.90;;;;;;5043580;28;20037;-77
2023/12/19 06:47:39;;;;;;;6.53;3.85;;;8.90;99.90;;;;;;5043054;28;20034;-78
2023/12/19 06:50:05;;;;;;;8.40;3.90;;;8.90;99.90;;;;;;5043486;28;20044;-78
2023/12/19 06:52:31;;;;;;;8.20;4.28;;;9.10;99.90;;;;;;5042198;28;20041;-78
2023/12/19 06:54:56;;;;;;;6.75;4.47;;;9.00;99.90;;;;;;5042809;28;20044;-78
2023/12/19 06:57:22;;;;;;;8.00;4.63;;;8.90;99.90;;;;;;5027707;28;20077;-78
2023/12/19 06:59:48;;;;;;;7.90;4.30;;;9.10;99.90;;;;;;5044978;28;20048;-78
2023/12/19 07:02:14;;;;;;;7.30;4.60;;;9.20;99.90;;;;;;5046682;28;20045;-78
2023/12/19 07:04:40;;;;;;;7.90;5.10;;;9.00;99.90;;;;;;5046454;28;20059;-78
2023/12/19 07:07:05;;;;;;;7.53;4.03;;;9.00;99.90;;;;;;5046573;28;20045;-78
2023/12/19 07:09:31;;;;;;;8.75;4.57;;;9.10;99.90;;;;;;5045895;28;20042;-78
2023/12/19 07:11:57;;;;;;;9.43;4.50;;;9.00;99.90;;;;;;5046231;28;20041;-77
2023/12/19 07:14:23;;;;;;;7.97;4.45;;;8.90;99.90;;;;;;5046184;28;20059;-77
2023/12/19 07:16:48;;;;;;;7.78;4.60;;;9.10;99.90;;;;;;5044970;28;20116;-77
2023/12/19 07:19:14;;;;;;;6.90;4.20;;;9.20;99.90;;;;;;5043670;28;20053;-77
2023/12/19 07:21:40;;;;;;;7.20;4.15;;;9.10;99.90;;;;;;5042430;28;20049;-77
2023/12/19 07:24:07;;;;;;;8.30;4.85;;;9.00;99.90;;;;;;5041931;28;20121;-77
2023/12/19 07:26:33;;;;;;;7.93;4.63;;;9.00;99.90;;;;;;5039949;28;20077;-77
2023/12/19 07:28:59;;;;;;;7.50;4.50;;;9.10;99.90;;;;;;5040888;28;20033;-77
2023/12/19 07:31:27;;;;;;;7.20;4.15;;;9.10;99.90;;;;;;5042911;28;20108;-77
2023/12/19 07:34:00;;;;;;;8.05;4.30;;;9.10;99.90;;;;;;5043641;28;20064;-77
2023/12/19 07:36:27;;;;;;;7.43;4.50;;;9.10;99.90;;;;;;5043581;28;20048;-77
2023/12/19 07:38:53;;;;;;;8.13;3.85;;;9.20;99.90;;;;;;5025916;28;20045;-77
2023/12/19 07:41:20;;;;;;;7.88;4.05;;;9.10;99.90;;;;;;5043278;28;20168;-77
2023/12/19 07:43:46;;;;;;;8.07;4.40;;;9.10;99.90;;;;;;5042803;28;20041;-77
2023/12/19 07:46:13;;;;;;;8.40;3.78;;;9.00;99.90;;;;;;5041406;28;20091;-78
2023/12/19 07:48:39;;;;;;;7.10;3.63;;;9.30;99.90;;;;;;5043877;28;20042;-77
2023/12/19 07:51:06;;;;;;;6.85;3.65;;;9.30;99.90;;;;;;5042926;28;20033;-77
2023/12/19 07:53:32;;;;;;;6.30;3.05;;;9.20;99.90;;;;;;5040251;28;20041;-77
2023/12/19 07:56:04;;;;;;;5.65;3.58;;;9.30;99.90;;;;;;5039250;28;20504;-78
2023/12/19 07:58:30;;;;;;;6.10;3.53;;;9.20;99.90;;;;;;5039215;28;20187;-78
2023/12/19 08:00:56;;;;;;;6.88;3.83;;;9.20;99.90;;;;;;5039818;28;20038;-78
2023/12/19 08:03:26;;;;;;;6.05;3.90;;;9.20;99.90;;;;;;5038794;28;20039;-77
2023/12/19 08:05:53;;;;;;;6.43;3.17;;;9.10;99.90;;;;;;5037223;28;20124;-78
2023/12/19 08:08:25;;;;;;;6.68;3.75;;;9.10;99.90;;;;;;5039774;28;20052;-78
2023/12/19 08:10:54;;;;;;;6.72;3.83;;;9.30;99.90;;;;;;5040201;28;20091;-78
2023/12/19 08:13:20;;;;;;;6.82;4.30;;;9.10;99.90;;;;;;5040581;28;20037;-77
2023/12/19 08:15:48;;;;;;;8.07;4.20;;;9.10;99.90;;;;;;5037554;28;20087;-76
2023/12/19 08:18:14;;;;;;;6.50;4.25;;;9.20;99.90;;;;;;5038609;28;20041;-77
2023/12/19 08:20:41;;;;;;;7.25;3.90;;;9.30;99.90;;;;;;5038374;28;20120;-77
2023/12/19 08:23:07;;;;;;;6.47;4.15;;;9.30;99.90;;;;;;5037155;28;20041;-78
2023/12/19 08:25:33;;;;;;;14.60;4.93;;;9.20;99.90;;;;;;5039848;28;20130;-79
2023/12/19 08:27:58;;;;;;;6.78;3.63;;;9.20;99.90;;;;;;5038767;28;20067;-79
2023/12/19 08:30:27;;;;;;;7.50;4.18;;;9.20;99.90;;;;;;5033395;28;20044;-77
2023/12/19 08:32:54;;;;;;;5.80;3.97;;;9.20;99.90;;;;;;5032498;28;20033;-78
2023/12/19 08:35:20;;;;;;;7.00;3.80;;;9.40;99.90;;;;;;5034365;28;20075;-77
2023/12/19 08:37:46;;;;;;;5.72;3.72;;;9.20;99.90;;;;;;5032485;28;20102;-77
2023/12/19 08:40:12;;;;;;;5.65;3.67;;;9.20;99.90;;;;;;5106947;22;20048;-71
2023/12/19 08:42:38;;;;;;;5.70;3.42;;;9.20;99.90;;;;;;5092632;28;20032;-71
2023/12/19 08:45:04;;;;;;;7.22;3.95;;;9.40;99.90;;;;;;5091654;28;20080;-71
2023/12/19 08:47:30;;;;;;;5.85;3.60;;;9.40;99.90;;;;;;5092460;28;20040;-71
2023/12/19 08:49:58;;;;;;;4.68;3.10;;;9.40;99.90;;;;;;5079912;28;20039;-71
2023/12/19 08:52:24;;;;;;;4.20;2.75;;;9.30;99.90;;;;;;5073500;28;20040;-71
2023/12/19 08:54:51;;;;;;;6.03;3.50;;;9.30;99.90;;;;;;5072225;28;20480;-71
2023/12/19 08:57:17;;;;;;;6.82;3.72;;;9.30;99.90;;;;;;5072268;28;20071;-71
2023/12/19 08:59:43;;;;;;;6.07;3.80;;;9.30;99.90;;;;;;5075537;28;20480;-71
2023/12/19 09:02:08;;;;;;;7.13;4.47;;;9.30;99.90;;;;;;5084411;28;20044;-70
2023/12/19 09:04:35;;;;;;;6.35;4.38;;;9.40;99.90;;;;;;5072087;28;20059;-71
2023/12/19 09:07:01;;;;;;;6.75;4.10;;;9.40;99.90;;;;;;5078244;28;20036;-70
2023/12/19 09:09:27;;;;;;;7.88;4.32;;;9.40;99.90;;;;;;5086625;28;20112;-70
2023/12/19 09:11:54;;;;;;;8.73;4.85;;;9.40;99.90;;;;;;5086598;28;20040;-71
2023/12/19 09:14:20;;;;;;;7.20;4.55;;;9.40;99.90;;;;;;5092375;28;20039;-71
2023/12/19 09:16:46;;;;;;;9.23;5.43;;;9.40;99.90;;;;;;5090874;28;20051;-71
2023/12/19 09:19:15;;;;;;;9.07;5.10;;;9.40;99.90;;;;;;5090219;28;20046;-70
2023/12/19 09:21:41;;;;;;;8.77;5.72;;;9.50;99.90;;;;;;5092185;28;20040;-70
2023/12/19 09:24:06;;;;;;;11.68;5.10;;;9.60;99.90;;;;;;5091878;28;20032;-70
2023/12/19 09:26:33;;;;;;;8.07;4.50;;;9.50;99.90;;;;;;5091777;28;20035;-70
2023/12/19 09:28:59;;;;;;;10.02;5.43;;;9.60;99.90;;;;;;5092028;28;20044;-71
2023/12/19 09:31:24;;;;;;;8.38;5.15;;;9.70;99.90;;;;;;5090710;28;20088;-70
2023/12/19 09:33:50;;;;;;;9.38;5.50;;;9.50;99.90;;;;;;5089651;28;20039;-71
2023/12/19 09:36:24;;;;;;;8.63;5.40;;;9.70;99.90;;;;;;5075332;28;20043;-71
2023/12/19 09:38:50;;;;;;;8.48;5.53;;;9.80;99.90;;;;;;5071481;28;20566;-70
2023/12/19 09:41:17;;;;;;;9.25;5.55;;;9.60;99.90;;;;;;5070470;28;20040;-71
2023/12/19 09:43:43;;;;;;;10.55;5.50;;;9.80;99.90;;;;;;5071732;28;20089;-71
2023/12/19 09:46:10;;;;;;;9.15;5.18;;;9.80;99.90;;;;;;5081356;28;20455;-71
2023/12/19 09:48:37;;;;;;;9.05;5.43;;;9.90;99.90;;;;;;5079675;28;20495;-71
2023/12/19 09:51:04;;;;;;;8.73;5.68;;;9.80;99.90;;;;;;5070270;28;20526;-71
2023/12/19 09:53:34;;;;;;;10.80;6.60;;;9.70;99.90;;;;;;5071543;28;20060;-71
2023/12/19 09:56:01;;;;;;;8.57;5.03;;;9.80;99.90;;;;;;5071589;28;20173;-71
2023/12/19 09:58:31;;;;;;;8.93;5.32;;;9.80;99.90;;;;;;5073083;28;20415;-71
2023/12/19 10:00:59;;;;;;;10.30;6.30;;;9.90;99.90;;;;;;5072597;28;20120;-71
2023/12/19 10:03:28;;;;;;;9.20;5.78;;;10.00;99.90;;;;;;5071483;28;20040;-70
2023/12/19 10:05:55;;;;;;;10.10;6.28;;;9.90;99.90;;;;;;5077315;28;20071;-70
2023/12/19 10:08:21;;;;;;;9.77;5.68;;;9.80;99.90;;;;;;5084873;28;20119;-70
2023/12/19 10:10:54;;;;;;;10.95;7.30;;;9.80;99.90;;;;;;5091852;28;20032;-70
2023/12/19 10:13:33;;;;;;;8.90;5.68;;;10.00;99.90;;;;;;5090420;28;20043;-70
2023/12/19 10:16:08;;;;;;;10.40;6.50;;;9.90;99.90;;;;;;5091379;28;20399;-70
2023/12/19 10:18:34;;;;;;;8.75;5.93;;;10.00;99.90;;;;;;5091557;28;20040;-71
2023/12/19 10:21:10;;;;;;;9.70;6.03;;;10.00;99.90;;;;;;5090543;28;20036;-71
2023/12/19 10:23:39;;;;;;;10.90;6.30;;;9.80;99.90;;;;;;5090276;28;20123;-71
2023/12/19 10:26:06;;;;;;;10.52;6.30;;;9.90;99.90;;;;;;5091027;28;20036;-71
2023/12/19 10:28:32;;;;;;;10.00;6.25;;;9.90;99.90;;;;;;5086226;28;20557;-70
2023/12/19 10:31:10;;;;;;;9.70;6.68;;;10.10;99.90;;;;;;5072913;28;20037;-70
2023/12/19 10:33:48;;;;;;;9.63;6.30;;;10.00;99.90;;;;;;5074973;28;20086;-70
2023/12/19 10:36:30;;;;;;;9.90;6.18;;;10.10;99.90;;;;;;5074912;28;20072;-70
2023/12/19 10:39:00;;;;;;;12.07;6.28;;;10.10;99.90;;;;;;5074682;28;20032;-70
2023/12/19 10:41:30;;;;;;;9.93;5.80;;;10.00;99.90;;;;;;5075022;28;20037;-70
2023/12/19 10:43:58;;;;;;;9.05;5.05;;;10.00;99.90;;;;;;5075065;28;20088;-71
2023/12/19 10:46:28;;;;;;;10.93;5.90;;;10.10;99.90;;;;;;5074759;28;20041;-70
2023/12/19 10:48:56;;;;;;;8.57;5.60;;;10.00;99.90;;;;;;5074195;28;20492;-71
2023/12/19 10:51:26;;;;;;;9.85;5.78;;;10.20;99.90;;;;;;5074489;28;20408;-70
2023/12/19 10:53:58;;;;;;;9.02;5.32;;;10.00;99.90;;;;;;5074239;28;20507;-70
2023/12/19 10:56:24;;;;;;;7.22;5.00;;;10.20;99.90;;;;;;5074598;28;20044;-70
2023/12/19 10:58:58;;;;;;;8.95;5.22;;;10.10;99.90;;;;;;5074469;28;20112;-70
2023/12/19 11:01:26;;;;;;;8.63;4.95;;;10.20;99.90;;;;;;5074694;28;20044;-70
2023/12/19 11:03:59;;;;;;;8.95;5.47;;;10.20;99.90;;;;;;5074376;28;20063;-70
2023/12/19 11:06:31;;;;;;;11.25;5.90;;;10.20;99.90;;;;;;5074374;28;20108;-71
2023/12/19 11:09:05;;;;;;;11.82;5.80;;;10.20;99.90;;;;;;5074427;28;20040;-71
2023/12/19 11:11:36;;;;;;;10.85;6.05;;;10.20;99.90;;;;;;5074441;28;20524;-71
2023/12/19 11:14:04;;;;;;;9.45;6.00;;;10.10;99.90;;;;;;5079712;28;20036;-70
2023/12/19 11:16:47;;;;;;;10.02;5.93;;;10.10;99.90;;;;;;5084461;28;20040;-70
2023/12/19 11:19:27;;;;;;;9.48;5.63;;;10.20;99.90;;;;;;5083783;28;20037;-70
2023/12/19 11:22:31;;;;;;;10.93;5.65;;;10.20;99.90;;;;;;5084409;28;20027;-70
2023/12/19 11:25:34;;;;;;;10.35;5.55;;;10.30;99.90;;;;;;5079152;28;20484;-69
2023/12/19 11:28:04;;;;;;;7.38;5.03;;;10.40;99.90;;;;;;5082077;28;20518;-70
2023/12/19 11:30:43;;;;;;;7.90;5.15;;;10.40;99.90;;;;;;5084056;28;20507;-70
2023/12/19 11:33:13;;;;;;;8.88;5.40;;;10.30;99.90;;;;;;5092174;28;20040;-70
2023/12/19 11:35:39;;;;;;;8.98;5.43;;;10.50;99.90;;;;;;5087667;28;20394;-71
2023/12/19 11:38:14;;;;;;;9.65;5.55;;;10.30;99.90;;;;;;5092640;28;20040;-70
2023/12/19 11:40:46;;;;;;;6.28;4.25;;;10.30;99.90;;;;;;5093217;28;20050;-70
2023/12/19 11:43:27;;;;;;;9.90;4.93;;;10.40;99.90;;;;;;5093633;28;20048;-70
2023/12/19 11:45:56;;;;;;;7.53;4.60;;;10.50;99.90;;;;;;5092638;28;20105;-70
2023/12/19 11:48:39;;;;;;;8.50;4.10;;;10.30;99.90;;;;;;5088016;28;20135;-70
2023/12/19 11:51:09;;;;;;;8.00;4.87;;;10.40;99.90;;;;;;5076478;28;20102;-70
2023/12/19 11:53:39;;;;;;;8.55;4.97;;;10.30;99.90;;;;;;5072446;28;20036;-71
2023/12/19 11:56:10;;;;;;;5.93;3.90;;;10.50;99.90;;;;;;5073137;28;20036;-70
2023/12/19 11:58:55;;;;;;;7.18;4.43;;;10.40;99.90;;;;;;5083106;28;20046;-70
2023/12/19 12:01:22;;;;;;;5.45;4.40;;;10.40;99.90;;;;;;5083570;28;20052;-70
2023/12/19 12:03:47;;;;;;;5.95;4.30;;;10.40;99.90;;;;;;5092554;28;20036;-71
2023/12/19 12:06:17;;;;;;;6.78;4.32;;;10.50;99.90;;;;;;5088161;28;20723;-71
2023/12/19 12:08:54;;;;;;;7.65;4.55;;;10.40;99.90;;;;;;5075021;28;20415;-71
2023/12/19 12:11:19;;;;;;;8.68;5.13;;;10.40;99.90;;;;;;5076784;28;20086;-70
2023/12/19 12:13:59;;;;;;;6.72;4.70;;;10.40;99.90;;;;;;5086149;28;20040;-71
2023/12/19 12:16:35;;;;;;;8.02;4.75;;;10.50;99.90;;;;;;5087938;28;20071;-71
2023/12/19 12:19:14;;;;;;;8.30;4.43;;;10.40;99.90;;;;;;5074292;28;20079;-70
2023/12/19 12:21:47;;;;;;;9.30;5.55;;;10.40;99.90;;;;;;5071820;28;20097;-71
2023/12/19 12:24:23;;;;;;;8.40;5.38;;;10.40;99.90;;;;;;5071766;28;20040;-71
2023/12/19 12:26:49;;;;;;;7.25;4.90;;;10.40;99.90;;;;;;5072657;28;20083;-71
2023/12/19 12:29:19;;;;;;;7.57;5.10;;;10.40;99.90;;;;;;5082060;28;20402;-71
2023/12/19 12:31:47;;;;;;;8.55;5.15;;;10.50;99.90;;;;;;5081300;28;20106;-71
2023/12/19 12:34:14;;;;;;;10.18;4.90;;;10.40;99.90;;;;;;5087331;28;20111;-71
2023/12/19 12:36:42;;;;;;;7.97;5.05;;;10.40;99.90;;;;;;5090766;28;20432;-73
2023/12/19 12:39:09;;;;;;;8.98;5.25;;;10.50;99.90;;;;;;5091681;28;20394;-74
2023/12/19 12:41:35;;;;;;;9.38;5.63;;;10.40;99.90;;;;;;5092625;28;20127;-74
2023/12/19 12:44:10;;;;;;;8.52;4.70;;;10.40;99.90;;;;;;5091613;28;20064;-74
2023/12/19 12:46:43;;;;;;;7.15;5.10;;;10.50;99.90;;;;;;5092742;28;20074;-74
2023/12/19 12:49:09;;;;;;;8.73;5.55;;;10.40;99.90;;;;;;5091699;28;20404;-74